createdAt,value
2023-05-05T00:01:45.301Z,3.80
2023-05-05T00:04:12.004Z,1.70
2023-05-05T00:06:38.577Z,2.80
2023-05-05T00:09:05.204Z,1.83
2023-05-05T00:11:31.851Z,1.95
2023-05-05T00:13:58.424Z,2.00
2023-05-05T00:16:25.237Z,2.08
2023-05-05T00:18:51.853Z,2.08
2023-05-05T00:21:19.802Z,1.70
2023-05-05T00:23:47.947Z,4.07
2023-05-05T00:26:16.389Z,2.67
2023-05-05T00:28:44.591Z,3.05
2023-05-05T00:31:12.385Z,4.78
2023-05-05T00:33:40.561Z,2.28
2023-05-05T00:36:08.769Z,2.35
2023-05-05T00:38:37.018Z,2.50
2023-05-05T00:41:04.748Z,3.00
2023-05-05T00:43:32.524Z,1.95
2023-05-05T00:46:04.959Z,2.25
2023-05-05T00:48:33.880Z,2.20
2023-05-05T00:51:01.506Z,2.03
2023-05-05T00:53:30.113Z,2.22
2023-05-05T00:55:58.962Z,2.53
2023-05-05T00:58:27.190Z,1.30
2023-05-05T01:00:53.729Z,1.85
2023-05-05T01:03:20.932Z,1.33
2023-05-05T01:11:31.085Z,1.13
2023-05-05T01:16:41.551Z,2.33
2023-05-05T01:21:48.441Z,2.53
2023-05-05T01:32:27.359Z,0.90
2023-05-05T01:37:32.241Z,1.38
2023-05-05T01:40:05.142Z,1.05
2023-05-05T01:42:33.919Z,1.13
2023-05-05T01:45:03.606Z,1.27
2023-05-05T01:47:31.892Z,2.17
2023-05-05T01:49:59.823Z,0.88
2023-05-05T01:52:28.086Z,1.10
2023-05-05T01:54:57.542Z,0.93
2023-05-05T01:57:26.607Z,0.95
2023-05-05T01:59:53.675Z,2.22
2023-05-05T02:02:21.742Z,0.80
2023-05-05T02:04:51.190Z,1.13
2023-05-05T02:07:18.718Z,1.23
2023-05-05T02:09:47.136Z,0.88
2023-05-05T02:12:14.998Z,1.92
2023-05-05T02:14:42.942Z,2.08
2023-05-05T02:17:11.658Z,2.05
2023-05-05T02:19:43.916Z,2.03
2023-05-05T02:22:10.777Z,3.47
2023-05-05T02:24:37.385Z,2.75
2023-05-05T02:27:07.378Z,1.73
2023-05-05T02:32:17.334Z,1.98
2023-05-05T02:34:46.331Z,2.88
2023-05-05T02:37:19.856Z,5.07
2023-05-05T02:39:58.363Z,2.72
2023-05-05T02:42:29.979Z,2.58
2023-05-05T02:44:59.257Z,2.75
2023-05-05T02:47:41.716Z,3.53
2023-05-05T02:50:09.340Z,2.05
2023-05-05T02:52:36.421Z,4.00
2023-05-05T02:55:04.366Z,3.72
2023-05-05T02:57:55.867Z,2.88
2023-05-05T03:03:14.262Z,3.53
2023-05-05T03:06:02.086Z,3.65
2023-05-05T03:08:34.026Z,3.17
2023-05-05T03:11:06.614Z,3.30
2023-05-05T03:13:37.267Z,3.28
2023-05-05T03:16:06.990Z,3.10
2023-05-05T03:18:35.462Z,4.75
2023-05-05T03:21:08.587Z,3.70
2023-05-05T03:23:36.282Z,4.75
2023-05-05T03:26:02.835Z,4.25
2023-05-05T03:28:29.448Z,4.63
2023-05-05T03:30:56.485Z,4.90
2023-05-05T03:33:23.084Z,3.90
2023-05-05T03:35:49.604Z,3.95
2023-05-05T03:38:16.183Z,5.22
2023-05-05T03:40:44.465Z,4.00
2023-05-05T03:43:11.686Z,5.10
2023-05-05T03:45:38.749Z,4.82
2023-05-05T03:48:06.097Z,5.00
2023-05-05T03:50:32.684Z,3.95
2023-05-05T03:52:59.225Z,4.60
2023-05-05T03:55:25.909Z,5.68
2023-05-05T03:57:52.421Z,3.90
2023-05-05T04:00:19.451Z,6.63
2023-05-05T04:02:46.111Z,4.75
2023-05-05T04:05:12.721Z,5.40
2023-05-05T04:07:39.271Z,5.35
2023-05-05T04:10:07.181Z,6.80
2023-05-05T04:12:33.894Z,4.15
2023-05-05T04:15:00.529Z,4.45
2023-05-05T04:17:27.105Z,5.18
2023-05-05T04:19:54.000Z,8.70
2023-05-05T04:22:20.559Z,5.32
2023-05-05T04:24:47.579Z,4.00
2023-05-05T04:27:14.130Z,7.20
2023-05-05T04:29:40.739Z,5.05
2023-05-05T04:32:07.349Z,5.28
2023-05-05T04:34:33.884Z,6.40
2023-05-05T04:37:00.475Z,6.07
2023-05-05T04:39:27.252Z,4.65
2023-05-05T04:41:53.769Z,5.28
2023-05-05T04:44:20.340Z,6.38
2023-05-05T04:46:46.993Z,5.80
2023-05-05T04:49:13.574Z,5.72
2023-05-05T04:51:42.360Z,4.53
2023-05-05T04:54:09.097Z,9.40
2023-05-05T04:56:35.925Z,4.47
2023-05-05T04:59:02.682Z,5.63
2023-05-05T05:01:29.311Z,5.32
2023-05-05T05:03:56.042Z,6.28
2023-05-05T05:06:22.885Z,7.13
2023-05-05T05:08:50.279Z,6.90
2023-05-05T05:11:16.808Z,5.05
2023-05-05T05:13:43.449Z,5.60
2023-05-05T05:16:10.052Z,6.90
2023-05-05T05:18:36.624Z,7.78
2023-05-05T05:21:03.610Z,3.42
2023-05-05T05:23:30.326Z,5.88
2023-05-05T05:25:57.237Z,5.60
2023-05-05T05:28:23.918Z,5.90
2023-05-05T05:30:50.672Z,8.95
2023-05-05T05:33:17.206Z,7.60
2023-05-05T05:35:43.712Z,8.32
2023-05-05T05:38:10.261Z,4.07
2023-05-05T05:40:37.165Z,6.93
2023-05-05T05:43:04.197Z,6.10
2023-05-05T05:45:31.048Z,6.15
2023-05-05T05:47:57.637Z,5.00
2023-05-05T05:50:27.116Z,4.35
2023-05-05T05:52:53.676Z,5.25
2023-05-05T05:55:20.887Z,6.00
2023-05-05T05:57:47.701Z,6.95
2023-05-05T06:00:15.964Z,4.45
2023-05-05T06:02:42.598Z,5.88
2023-05-05T06:05:09.601Z,6.32
2023-05-05T06:07:36.183Z,4.72
2023-05-05T06:10:14.453Z,7.93
2023-05-05T06:12:49.468Z,5.90
2023-05-05T06:15:16.061Z,4.20
2023-05-05T06:17:42.633Z,6.18
2023-05-05T06:20:10.050Z,7.10
2023-05-05T06:22:36.706Z,6.85
2023-05-05T06:25:03.246Z,4.90
2023-05-05T06:27:29.978Z,4.95
2023-05-05T06:29:56.547Z,5.57
2023-05-05T06:32:23.121Z,6.05
2023-05-05T06:34:49.751Z,9.02
2023-05-05T06:37:16.253Z,9.05
2023-05-05T06:39:42.923Z,9.70
2023-05-05T06:42:09.498Z,6.22
2023-05-05T06:44:36.511Z,7.55
2023-05-05T06:47:03.920Z,9.23
2023-05-05T06:49:30.518Z,7.85
2023-05-05T06:51:57.050Z,7.05
2023-05-05T06:54:23.656Z,6.20
2023-05-05T06:56:50.147Z,6.57
2023-05-05T06:59:16.690Z,5.63
2023-05-05T07:01:43.240Z,8.32
2023-05-05T07:04:10.034Z,5.43
2023-05-05T07:06:36.653Z,6.53
2023-05-05T07:09:04.414Z,6.00
2023-05-05T07:11:30.955Z,7.85
2023-05-05T07:13:57.496Z,8.18
2023-05-05T07:16:25.156Z,6.80
2023-05-05T07:18:51.698Z,5.93
2023-05-05T07:21:18.261Z,6.88
2023-05-05T07:23:46.264Z,7.45
2023-05-05T07:26:12.893Z,7.88
2023-05-05T07:28:39.421Z,9.57
2023-05-05T07:31:05.984Z,9.13
2023-05-05T07:33:32.514Z,13.32
2023-05-05T07:35:59.056Z,10.77
2023-05-05T07:38:29.019Z,8.65
2023-05-05T07:40:56.330Z,4.85
2023-05-05T07:43:22.882Z,6.53
2023-05-05T07:45:49.502Z,6.43
2023-05-05T07:48:16.377Z,7.43
2023-05-05T07:50:42.979Z,4.80
2023-05-05T07:53:14.417Z,4.90
2023-05-05T07:55:41.918Z,8.30
2023-05-05T07:58:08.747Z,5.25
2023-05-05T08:00:35.621Z,3.40
2023-05-05T08:03:02.823Z,10.68
2023-05-05T08:05:30.284Z,4.22
2023-05-05T08:08:00.841Z,4.38
2023-05-05T08:10:27.734Z,3.95
2023-05-05T08:12:54.958Z,4.63
2023-05-05T08:15:21.668Z,5.35
2023-05-05T08:17:50.302Z,6.43
2023-05-05T08:20:18.005Z,3.72
2023-05-05T08:22:45.540Z,7.18
2023-05-05T08:25:13.262Z,7.25
2023-05-05T08:27:42.373Z,5.90
2023-05-05T08:30:13.129Z,6.13
2023-05-05T08:32:39.776Z,5.65
2023-05-05T08:35:07.600Z,7.30
2023-05-05T08:37:34.858Z,3.17
2023-05-05T08:40:01.462Z,3.33
2023-05-05T08:42:38.107Z,3.72
2023-05-05T08:45:08.566Z,4.30
2023-05-05T08:47:36.863Z,6.88
2023-05-05T08:50:05.699Z,5.40
2023-05-05T08:52:43.989Z,7.00
2023-05-05T08:57:56.963Z,4.47
2023-05-05T09:00:26.436Z,4.20
2023-05-05T09:02:56.423Z,4.38
2023-05-05T09:05:23.751Z,7.68
2023-05-05T09:07:51.068Z,5.07
2023-05-05T09:10:18.590Z,4.97
2023-05-05T09:12:45.277Z,3.42
2023-05-05T09:15:14.698Z,6.63
2023-05-05T09:17:42.096Z,7.95
2023-05-05T09:20:13.605Z,4.25
2023-05-05T09:22:43.726Z,6.93
2023-05-05T09:25:12.260Z,3.35
2023-05-05T09:27:42.527Z,2.78
2023-05-05T09:30:11.082Z,4.72
2023-05-05T09:32:47.370Z,5.22
2023-05-05T09:35:14.757Z,7.15
2023-05-05T09:37:41.800Z,4.95
2023-05-05T09:40:09.419Z,4.97
2023-05-05T09:42:37.975Z,6.13
2023-05-05T09:48:00.362Z,3.97
2023-05-05T09:50:30.510Z,3.67
2023-05-05T09:53:00.040Z,3.30
2023-05-05T09:55:26.607Z,4.90
2023-05-05T09:57:53.700Z,3.75
2023-05-05T10:00:21.127Z,1.70
2023-05-05T10:02:47.820Z,1.85
2023-05-05T10:05:17.548Z,2.03
2023-05-05T10:07:46.276Z,4.00
2023-05-05T10:10:16.195Z,3.70
2023-05-05T10:12:43.630Z,3.75
2023-05-05T10:15:12.054Z,4.03
2023-05-05T10:18:06.745Z,6.70
2023-05-05T10:20:36.584Z,3.45
2023-05-05T10:23:06.946Z,2.83
2023-05-05T10:25:42.191Z,6.65
2023-05-05T10:28:16.662Z,5.28
2023-05-05T10:30:46.119Z,4.55
2023-05-05T10:33:31.677Z,3.88
2023-05-05T10:36:02.462Z,2.70
2023-05-05T10:38:31.173Z,2.72
2023-05-05T10:41:00.232Z,1.98
2023-05-05T10:43:31.456Z,3.10
2023-05-05T10:45:59.289Z,2.28
2023-05-05T10:48:35.971Z,3.17
2023-05-05T10:51:21.102Z,4.07
2023-05-05T10:54:00.992Z,2.10
2023-05-05T10:56:32.713Z,2.58
2023-05-05T10:59:00.488Z,3.47
2023-05-05T11:01:31.300Z,5.18
2023-05-05T11:10:04.005Z,3.67
2023-05-05T11:12:31.931Z,2.55
2023-05-05T11:15:38.065Z,1.52
2023-05-05T11:18:07.995Z,1.77
2023-05-05T11:25:51.422Z,1.25
2023-05-05T11:28:20.961Z,1.98
2023-05-05T11:33:36.080Z,2.60
2023-05-05T11:36:13.119Z,2.38
2023-05-05T11:44:31.152Z,1.70
2023-05-05T11:49:36.634Z,0.95
2023-05-05T11:52:06.230Z,2.35
2023-05-05T11:54:35.239Z,2.20
2023-05-05T11:57:05.292Z,1.50
2023-05-05T11:59:32.618Z,2.05
2023-05-05T12:02:00.127Z,1.88
2023-05-05T12:04:26.763Z,2.38
2023-05-05T12:06:55.420Z,2.50
2023-05-05T12:09:23.899Z,1.98
2023-05-05T12:14:29.983Z,2.13
2023-05-05T12:16:58.624Z,2.13
2023-05-05T12:19:30.096Z,2.47
2023-05-05T12:21:57.144Z,2.95
2023-05-05T12:24:23.739Z,2.25
2023-05-05T12:26:50.400Z,1.20
2023-05-05T12:29:25.511Z,4.95
2023-05-05T12:31:52.162Z,2.83
2023-05-05T12:34:19.204Z,2.38
2023-05-05T12:36:45.994Z,3.15
2023-05-05T12:39:12.841Z,2.50
2023-05-05T12:41:39.641Z,3.70
2023-05-05T12:44:06.727Z,5.28
2023-05-05T12:46:45.724Z,1.77
2023-05-05T12:49:12.596Z,2.05
2023-05-05T12:51:51.746Z,1.85
2023-05-05T12:54:18.307Z,2.97
2023-05-05T12:56:47.232Z,2.45
2023-05-05T13:02:02.876Z,1.92
2023-05-05T13:04:29.647Z,1.25
2023-05-05T13:07:16.787Z,1.90
2023-05-05T13:09:43.946Z,4.05
2023-05-05T13:12:12.435Z,3.38
2023-05-05T13:14:40.669Z,2.53
2023-05-05T13:17:07.649Z,4.82
2023-05-05T13:19:41.694Z,4.43
2023-05-05T13:22:10.674Z,3.65
2023-05-05T13:24:49.890Z,3.22
2023-05-05T13:27:19.204Z,5.32
2023-05-05T13:29:46.069Z,7.43
2023-05-05T13:32:12.709Z,2.80
2023-05-05T13:34:39.536Z,6.65
2023-05-05T13:37:06.343Z,1.88
2023-05-05T13:39:32.927Z,2.78
2023-05-05T13:41:59.472Z,3.10
2023-05-05T13:44:26.045Z,1.50
2023-05-05T13:46:52.782Z,1.77
2023-05-05T13:49:20.175Z,1.77
2023-05-05T13:51:47.120Z,3.28
2023-05-05T13:54:13.976Z,2.80
2023-05-05T13:56:40.754Z,3.83
2023-05-05T13:59:07.481Z,1.63
2023-05-05T14:01:34.117Z,3.58
2023-05-05T14:04:03.663Z,2.20
2023-05-05T14:06:32.510Z,3.10
2023-05-05T14:08:59.181Z,1.58
2023-05-05T14:11:25.713Z,3.92
2023-05-05T14:13:52.809Z,2.90
2023-05-05T14:16:19.606Z,2.13
2023-05-05T14:18:46.263Z,4.25
2023-05-05T14:21:12.823Z,1.52
2023-05-05T14:23:39.420Z,0.63
2023-05-05T14:26:06.041Z,3.40
2023-05-05T14:28:32.557Z,2.38
2023-05-05T14:30:59.153Z,2.58
2023-05-05T14:33:25.903Z,3.22
2023-05-05T14:35:52.541Z,1.52
2023-05-05T14:38:19.156Z,2.50
2023-05-05T14:40:45.787Z,2.35
2023-05-05T14:43:12.299Z,1.67
2023-05-05T14:45:39.008Z,1.45
2023-05-05T14:48:05.872Z,3.13
2023-05-05T14:50:32.489Z,0.98
2023-05-05T14:52:59.087Z,1.85
2023-05-05T14:55:26.099Z,1.63
2023-05-05T14:57:52.759Z,1.45
2023-05-05T15:00:19.520Z,2.13
2023-05-05T15:02:48.289Z,2.50
2023-05-05T15:05:15.315Z,1.27
2023-05-05T15:07:41.897Z,1.88
2023-05-05T15:10:08.916Z,2.20
2023-05-05T15:12:35.558Z,1.98
2023-05-05T15:15:02.194Z,4.82
2023-05-05T15:17:30.735Z,2.53
2023-05-05T15:19:57.513Z,3.60
2023-05-05T15:22:24.062Z,3.03
2023-05-05T15:24:50.652Z,1.50
2023-05-05T15:27:18.295Z,1.17
2023-05-05T15:29:45.221Z,0.85
2023-05-05T15:32:11.935Z,4.32
2023-05-05T15:34:38.562Z,3.70
2023-05-05T15:37:05.156Z,1.98
2023-05-05T15:39:31.679Z,3.80
2023-05-05T15:42:02.703Z,2.08
2023-05-05T15:44:29.924Z,3.10
2023-05-05T15:46:56.484Z,2.08
2023-05-05T15:49:23.108Z,1.45
2023-05-05T15:51:49.753Z,2.58
2023-05-05T15:54:16.338Z,3.10
2023-05-05T15:56:42.893Z,3.28
2023-05-05T15:59:09.561Z,3.67
2023-05-05T16:01:36.435Z,1.23
2023-05-05T16:04:03.689Z,1.17
2023-05-05T16:06:30.761Z,1.98
2023-05-05T16:08:58.684Z,1.95
2023-05-05T16:11:26.591Z,1.95
2023-05-05T16:13:53.512Z,2.13
2023-05-05T16:16:20.381Z,3.42
2023-05-05T16:18:47.000Z,2.83
2023-05-05T16:21:13.873Z,2.40
2023-05-05T16:23:40.594Z,2.45
2023-05-05T16:26:07.202Z,4.13
2023-05-05T16:28:34.313Z,2.65
2023-05-05T16:31:02.295Z,7.90
2023-05-05T16:33:29.246Z,3.70
2023-05-05T16:35:55.998Z,2.63
2023-05-05T16:38:22.928Z,3.83
2023-05-05T16:40:49.634Z,2.17
2023-05-05T16:43:16.429Z,2.90
2023-05-05T16:45:43.579Z,2.00
2023-05-05T16:48:10.437Z,3.25
2023-05-05T16:50:36.996Z,4.00
2023-05-05T16:53:03.613Z,6.07
2023-05-05T16:55:30.309Z,3.05
2023-05-05T16:57:56.965Z,6.75
2023-05-05T17:00:23.530Z,2.15
2023-05-05T17:02:50.233Z,3.83
2023-05-05T17:05:17.606Z,6.18
2023-05-05T17:07:44.309Z,5.03
2023-05-05T17:10:11.015Z,3.53
2023-05-05T17:12:37.609Z,3.40
2023-05-05T17:15:04.505Z,5.22
2023-05-05T17:17:31.131Z,3.03
2023-05-05T17:19:57.766Z,4.95
2023-05-05T17:22:24.300Z,6.07
2023-05-05T17:24:50.977Z,8.57
2023-05-05T17:27:17.568Z,4.85
2023-05-05T17:29:44.184Z,6.38
2023-05-05T17:32:11.003Z,2.13
2023-05-05T17:34:37.660Z,7.00
2023-05-05T17:37:04.275Z,5.05
2023-05-05T17:39:31.032Z,5.07
2023-05-05T17:41:57.583Z,7.80
2023-05-05T17:44:24.206Z,5.22
2023-05-05T17:46:50.789Z,2.85
2023-05-05T17:49:17.406Z,2.95
2023-05-05T17:51:43.921Z,3.85
2023-05-05T17:54:10.656Z,4.70
2023-05-05T17:56:38.068Z,6.07
2023-05-05T17:59:04.692Z,4.25
2023-05-05T18:01:31.314Z,5.68
2023-05-05T18:03:57.918Z,3.75
2023-05-05T18:06:25.718Z,5.15
2023-05-05T18:08:52.558Z,3.80
2023-05-05T18:11:21.205Z,6.68
2023-05-05T18:13:47.783Z,6.18
2023-05-05T18:16:14.372Z,3.58
2023-05-05T18:18:41.357Z,6.85
2023-05-05T18:21:12.040Z,4.93
2023-05-05T18:23:39.839Z,5.45
2023-05-05T18:26:07.287Z,5.78
2023-05-05T18:28:33.865Z,5.63
2023-05-05T18:31:00.506Z,3.25
2023-05-05T18:33:27.059Z,3.80
2023-05-05T18:35:53.660Z,4.90
2023-05-05T18:38:20.266Z,3.78
2023-05-05T18:40:47.201Z,3.75
2023-05-05T18:43:13.750Z,8.55
2023-05-05T18:45:40.345Z,3.60
2023-05-05T18:48:07.011Z,6.03
2023-05-05T18:50:33.664Z,10.50
2023-05-05T18:53:00.284Z,7.82
2023-05-05T18:55:26.834Z,5.32
2023-05-05T18:57:53.408Z,4.75
2023-05-05T19:00:20.756Z,6.90
2023-05-05T19:02:47.357Z,6.82
2023-05-05T19:05:13.951Z,8.55
2023-05-05T19:07:40.869Z,4.70
2023-05-05T19:10:08.380Z,5.05
2023-05-05T19:12:35.151Z,5.10
2023-05-05T19:15:01.760Z,3.35
2023-05-05T19:17:28.376Z,3.28
2023-05-05T19:19:54.954Z,3.90
2023-05-05T19:22:23.514Z,2.95
2023-05-05T19:24:50.082Z,4.60
2023-05-05T19:27:17.198Z,2.35
2023-05-05T19:29:44.323Z,3.58
2023-05-05T19:32:11.160Z,4.15
2023-05-05T19:34:37.852Z,4.18
2023-05-05T19:37:04.486Z,2.30
2023-05-05T19:39:31.334Z,2.05
2023-05-05T19:41:57.885Z,3.88
2023-05-05T19:44:24.431Z,8.25
2023-05-05T19:46:53.039Z,7.95
2023-05-05T19:49:19.840Z,2.75
2023-05-05T19:51:49.638Z,6.20
2023-05-05T19:56:42.944Z,7.88
2023-05-05T19:59:09.493Z,9.25
2023-05-05T20:01:36.287Z,6.53
2023-05-05T20:04:03.956Z,8.70
2023-05-05T20:06:30.629Z,5.72
2023-05-05T20:08:57.235Z,6.30
2023-05-05T20:11:25.831Z,5.57
2023-05-05T20:13:53.026Z,5.05
2023-05-05T20:16:20.057Z,4.30
2023-05-05T20:18:46.825Z,5.03
2023-05-05T20:21:14.113Z,7.65
2023-05-05T20:23:42.826Z,6.80
2023-05-05T20:26:09.613Z,7.22
2023-05-05T20:28:36.305Z,4.90
2023-05-05T20:31:02.970Z,7.20
2023-05-05T20:33:29.591Z,2.47
2023-05-05T20:35:56.317Z,3.83
2023-05-05T20:38:22.982Z,4.90
2023-05-05T20:40:50.258Z,7.88
2023-05-05T20:43:16.854Z,7.70
2023-05-05T20:45:43.492Z,7.40
2023-05-05T20:48:11.482Z,6.47
2023-05-05T20:50:38.811Z,5.20
2023-05-05T20:53:07.954Z,11.35
2023-05-05T20:55:34.755Z,7.93
2023-05-05T20:58:01.392Z,7.40
2023-05-05T21:00:27.960Z,5.88
2023-05-05T21:02:54.631Z,6.93
2023-05-05T21:05:21.431Z,5.13
2023-05-05T21:07:48.000Z,7.28
2023-05-05T21:10:14.718Z,7.70
2023-05-05T21:12:41.751Z,6.18
2023-05-05T21:15:09.253Z,9.95
2023-05-05T21:17:36.313Z,2.55
2023-05-05T21:20:02.982Z,6.13
2023-05-05T21:22:29.638Z,5.93
2023-05-05T21:25:09.767Z,7.22
2023-05-05T21:27:36.376Z,8.25
2023-05-05T21:30:03.013Z,8.52
2023-05-05T21:32:29.746Z,7.05
2023-05-05T21:34:56.496Z,6.97
2023-05-05T21:37:23.033Z,4.13
2023-05-05T21:39:49.728Z,3.97
2023-05-05T21:42:16.327Z,3.97
2023-05-05T21:44:42.954Z,7.43
2023-05-05T21:47:09.776Z,8.27
2023-05-05T21:49:36.360Z,9.77
2023-05-05T21:52:02.994Z,7.88
2023-05-05T21:54:30.123Z,5.35
2023-05-05T21:56:56.743Z,8.98
2023-05-05T21:59:23.331Z,2.63
2023-05-05T22:01:50.037Z,3.83
2023-05-05T22:04:16.643Z,5.72
2023-05-05T22:06:43.211Z,5.68
2023-05-05T22:09:09.954Z,5.05
2023-05-05T22:11:36.573Z,12.10
2023-05-05T22:14:03.127Z,11.45
2023-05-05T22:16:29.729Z,3.97
2023-05-05T22:18:56.330Z,6.15
2023-05-05T22:21:22.858Z,3.78
2023-05-05T22:23:49.474Z,6.25
2023-05-05T22:26:15.992Z,3.30
2023-05-05T22:28:42.701Z,5.68
2023-05-05T22:31:09.331Z,3.15
2023-05-05T22:33:36.241Z,5.47
2023-05-05T22:36:02.857Z,8.07
2023-05-05T22:38:29.384Z,4.03
2023-05-05T22:40:56.107Z,7.07
2023-05-05T22:43:22.648Z,8.10
2023-05-05T22:45:49.331Z,6.60
2023-05-05T22:48:15.861Z,3.42
2023-05-05T22:50:42.428Z,7.03
2023-05-05T22:53:08.954Z,5.95
2023-05-05T22:55:35.495Z,3.47
2023-05-05T22:58:02.117Z,4.93
2023-05-05T23:00:28.973Z,8.57
2023-05-05T23:02:55.742Z,4.55
2023-05-05T23:05:22.444Z,5.93
2023-05-05T23:07:49.011Z,5.32
2023-05-05T23:10:15.688Z,7.03
2023-05-05T23:12:42.487Z,6.75
2023-05-05T23:15:09.901Z,4.30
2023-05-05T23:17:36.756Z,8.27
2023-05-05T23:20:04.317Z,10.60
2023-05-05T23:22:30.871Z,5.68
2023-05-05T23:24:57.411Z,6.10
2023-05-05T23:27:24.012Z,4.70
2023-05-05T23:29:50.696Z,5.43
2023-05-05T23:32:17.628Z,5.72
2023-05-05T23:34:44.213Z,5.15
2023-05-05T23:37:12.607Z,8.02
2023-05-05T23:39:39.150Z,6.50
2023-05-05T23:42:05.698Z,2.33
2023-05-05T23:44:32.241Z,7.28
2023-05-05T23:46:58.798Z,8.77
2023-05-05T23:49:26.397Z,6.93
2023-05-05T23:51:52.918Z,6.93
2023-05-05T23:54:19.585Z,6.50
2023-05-05T23:56:47.772Z,7.22
2023-05-05T23:59:14.389Z,7.28
